sensor_id;sensor_type;location;lat;lon;timestamp;P1;durP1;ratioP1;P2;durP2;ratioP2
85405;SDS011;75817;42.662;23.270;2024-01-30T00:02:16;6.25;;;4.53;;
85405;SDS011;75817;42.662;23.270;2024-01-30T00:04:41;6.78;;;4.38;;
85405;SDS011;75817;42.662;23.270;2024-01-30T00:07:07;6.85;;;4.72;;
85405;SDS011;75817;42.662;23.270;2024-01-30T00:09:32;6.28;;;4.20;;
85405;SDS011;75817;42.662;23.270;2024-01-30T00:11:58;7.72;;;5.20;;
85405;SDS011;75817;42.662;23.270;2024-01-30T00:14:23;5.60;;;4.82;;
85405;SDS011;75817;42.662;23.270;2024-01-30T00:16:49;7.80;;;5.32;;
85405;SDS011;75817;42.662;23.270;2024-01-30T00:19:15;5.60;;;4.03;;
85405;SDS011;75817;42.662;23.270;2024-01-30T00:21:40;5.50;;;4.32;;
85405;SDS011;75817;42.662;23.270;2024-01-30T00:24:06;7.10;;;4.50;;
85405;SDS011;75817;42.662;23.270;2024-01-30T00:26:31;5.15;;;4.03;;
85405;SDS011;75817;42.662;23.270;2024-01-30T00:28:57;8.20;;;4.80;;
85405;SDS011;75817;42.662;23.270;2024-01-30T00:31:22;6.78;;;5.05;;
85405;SDS011;75817;42.662;23.270;2024-01-30T00:33:48;5.72;;;3.80;;
85405;SDS011;75817;42.662;23.270;2024-01-30T00:36:13;6.57;;;3.80;;
85405;SDS011;75817;42.662;23.270;2024-01-30T00:38:38;7.20;;;4.57;;
85405;SDS011;75817;42.662;23.270;2024-01-30T00:41:05;6.03;;;4.05;;
85405;SDS011;75817;42.662;23.270;2024-01-30T00:43:32;6.32;;;3.78;;
85405;SDS011;75817;42.662;23.270;2024-01-30T00:45:58;8.25;;;4.43;;
85405;SDS011;75817;42.662;23.270;2024-01-30T00:48:23;5.00;;;4.50;;
85405;SDS011;75817;42.662;23.270;2024-01-30T00:50:49;7.30;;;4.07;;
85405;SDS011;75817;42.662;23.270;2024-01-30T00:53:14;5.75;;;4.20;;
85405;SDS011;75817;42.662;23.270;2024-01-30T00:55:40;7.68;;;4.97;;
85405;SDS011;75817;42.662;23.270;2024-01-30T00:58:05;8.68;;;5.20;;
85405;SDS011;75817;42.662;23.270;2024-01-30T01:00:31;8.23;;;5.50;;
85405;SDS011;75817;42.662;23.270;2024-01-30T01:03:00;7.88;;;6.07;;
85405;SDS011;75817;42.662;23.270;2024-01-30T01:05:26;7.60;;;6.13;;
85405;SDS011;75817;42.662;23.270;2024-01-30T01:07:51;8.73;;;6.03;;
85405;SDS011;75817;42.662;23.270;2024-01-30T01:10:17;7.65;;;5.38;;
85405;SDS011;75817;42.662;23.270;2024-01-30T01:12:43;6.25;;;5.07;;
85405;SDS011;75817;42.662;23.270;2024-01-30T01:15:09;8.30;;;5.55;;
85405;SDS011;75817;42.662;23.270;2024-01-30T01:17:35;8.90;;;5.95;;
85405;SDS011;75817;42.662;23.270;2024-01-30T01:20:01;8.40;;;5.47;;
85405;SDS011;75817;42.662;23.270;2024-01-30T01:22:27;6.93;;;4.55;;
85405;SDS011;75817;42.662;23.270;2024-01-30T01:24:52;8.10;;;5.35;;
85405;SDS011;75817;42.662;23.270;2024-01-30T01:27:17;8.30;;;5.50;;
85405;SDS011;75817;42.662;23.270;2024-01-30T01:29:43;7.60;;;5.13;;
85405;SDS011;75817;42.662;23.270;2024-01-30T01:32:08;6.10;;;4.43;;
85405;SDS011;75817;42.662;23.270;2024-01-30T01:34:33;7.22;;;5.72;;
85405;SDS011;75817;42.662;23.270;2024-01-30T01:36:59;6.70;;;4.80;;
85405;SDS011;75817;42.662;23.270;2024-01-30T01:39:25;6.20;;;4.28;;
85405;SDS011;75817;42.662;23.270;2024-01-30T01:41:50;5.97;;;4.35;;
85405;SDS011;75817;42.662;23.270;2024-01-30T01:44:15;8.05;;;4.85;;
85405;SDS011;75817;42.662;23.270;2024-01-30T01:46:42;6.07;;;4.65;;
85405;SDS011;75817;42.662;23.270;2024-01-30T01:49:07;6.00;;;3.97;;
85405;SDS011;75817;42.662;23.270;2024-01-30T01:51:33;6.30;;;4.30;;
85405;SDS011;75817;42.662;23.270;2024-01-30T01:54:01;5.07;;;3.55;;
85405;SDS011;75817;42.662;23.270;2024-01-30T01:56:29;6.15;;;4.45;;
85405;SDS011;75817;42.662;23.270;2024-01-30T01:58:55;6.35;;;4.18;;
85405;SDS011;75817;42.662;23.270;2024-01-30T02:01:31;6.78;;;5.18;;
85405;SDS011;75817;42.662;23.270;2024-01-30T02:03:58;7.40;;;4.03;;
85405;SDS011;75817;42.662;23.270;2024-01-30T02:06:24;6.22;;;5.45;;
85405;SDS011;75817;42.662;23.270;2024-01-30T02:08:49;6.72;;;4.15;;
85405;SDS011;75817;42.662;23.270;2024-01-30T02:11:15;6.13;;;4.18;;
85405;SDS011;75817;42.662;23.270;2024-01-30T02:13:41;7.05;;;4.18;;
85405;SDS011;75817;42.662;23.270;2024-01-30T02:16:07;8.80;;;4.43;;
85405;SDS011;75817;42.662;23.270;2024-01-30T02:18:32;6.93;;;4.30;;
85405;SDS011;75817;42.662;23.270;2024-01-30T02:20:58;6.82;;;4.75;;
85405;SDS011;75817;42.662;23.270;2024-01-30T02:23:26;5.78;;;3.92;;
85405;SDS011;75817;42.662;23.270;2024-01-30T02:25:52;5.93;;;3.97;;
85405;SDS011;75817;42.662;23.270;2024-01-30T02:28:18;5.65;;;4.43;;
85405;SDS011;75817;42.662;23.270;2024-01-30T02:30:44;7.43;;;4.32;;
85405;SDS011;75817;42.662;23.270;2024-01-30T02:33:09;6.68;;;4.32;;
85405;SDS011;75817;42.662;23.270;2024-01-30T02:35:35;5.97;;;4.03;;
85405;SDS011;75817;42.662;23.270;2024-01-30T02:38:00;5.47;;;3.85;;
85405;SDS011;75817;42.662;23.270;2024-01-30T02:40:25;6.10;;;4.32;;
85405;SDS011;75817;42.662;23.270;2024-01-30T02:42:51;6.03;;;4.15;;
85405;SDS011;75817;42.662;23.270;2024-01-30T02:45:16;4.72;;;4.20;;
85405;SDS011;75817;42.662;23.270;2024-01-30T02:47:42;7.05;;;4.60;;
85405;SDS011;75817;42.662;23.270;2024-01-30T02:50:07;7.72;;;4.63;;
85405;SDS011;75817;42.662;23.270;2024-01-30T02:52:33;8.15;;;5.38;;
85405;SDS011;75817;42.662;23.270;2024-01-30T02:54:59;7.60;;;4.72;;
85405;SDS011;75817;42.662;23.270;2024-01-30T02:57:24;6.55;;;4.35;;
85405;SDS011;75817;42.662;23.270;2024-01-30T02:59:50;7.90;;;4.53;;
85405;SDS011;75817;42.662;23.270;2024-01-30T03:02:15;7.90;;;4.93;;
85405;SDS011;75817;42.662;23.270;2024-01-30T03:04:41;6.05;;;4.28;;
85405;SDS011;75817;42.662;23.270;2024-01-30T03:07:07;7.55;;;4.05;;
85405;SDS011;75817;42.662;23.270;2024-01-30T03:09:33;6.20;;;4.78;;
85405;SDS011;75817;42.662;23.270;2024-01-30T03:11:58;6.03;;;4.10;;
85405;SDS011;75817;42.662;23.270;2024-01-30T03:14:23;6.55;;;4.75;;
85405;SDS011;75817;42.662;23.270;2024-01-30T03:16:49;6.60;;;4.35;;
85405;SDS011;75817;42.662;23.270;2024-01-30T03:19:14;6.05;;;3.40;;
85405;SDS011;75817;42.662;23.270;2024-01-30T03:21:40;7.25;;;4.05;;
85405;SDS011;75817;42.662;23.270;2024-01-30T03:24:05;5.90;;;4.05;;
85405;SDS011;75817;42.662;23.270;2024-01-30T03:26:30;5.80;;;4.40;;
85405;SDS011;75817;42.662;23.270;2024-01-30T03:28:56;6.70;;;3.88;;
85405;SDS011;75817;42.662;23.270;2024-01-30T03:31:21;5.90;;;4.03;;
85405;SDS011;75817;42.662;23.270;2024-01-30T03:33:46;6.38;;;4.25;;
85405;SDS011;75817;42.662;23.270;2024-01-30T03:36:12;5.03;;;3.63;;
85405;SDS011;75817;42.662;23.270;2024-01-30T03:38:37;6.25;;;4.00;;
85405;SDS011;75817;42.662;23.270;2024-01-30T03:41:03;4.78;;;3.65;;
85405;SDS011;75817;42.662;23.270;2024-01-30T03:43:28;5.28;;;3.63;;
85405;SDS011;75817;42.662;23.270;2024-01-30T03:45:53;4.18;;;3.22;;
85405;SDS011;75817;42.662;23.270;2024-01-30T03:48:20;6.57;;;3.65;;
85405;SDS011;75817;42.662;23.270;2024-01-30T03:50:46;4.00;;;2.95;;
85405;SDS011;75817;42.662;23.270;2024-01-30T03:53:11;5.88;;;4.07;;
85405;SDS011;75817;42.662;23.270;2024-01-30T03:55:36;5.25;;;4.10;;
85405;SDS011;75817;42.662;23.270;2024-01-30T03:58:02;6.18;;;3.88;;
85405;SDS011;75817;42.662;23.270;2024-01-30T04:00:27;5.47;;;3.25;;
85405;SDS011;75817;42.662;23.270;2024-01-30T04:02:53;6.45;;;3.55;;
85405;SDS011;75817;42.662;23.270;2024-01-30T04:05:18;4.90;;;3.60;;
85405;SDS011;75817;42.662;23.270;2024-01-30T04:07:43;5.60;;;3.28;;
85405;SDS011;75817;42.662;23.270;2024-01-30T04:10:09;5.90;;;3.63;;
85405;SDS011;75817;42.662;23.270;2024-01-30T04:12:35;5.65;;;3.55;;
85405;SDS011;75817;42.662;23.270;2024-01-30T04:15:01;5.63;;;3.05;;
85405;SDS011;75817;42.662;23.270;2024-01-30T04:17:27;3.85;;;3.03;;
85405;SDS011;75817;42.662;23.270;2024-01-30T04:19:54;6.75;;;4.75;;
85405;SDS011;75817;42.662;23.270;2024-01-30T04:22:19;6.03;;;3.10;;
85405;SDS011;75817;42.662;23.270;2024-01-30T04:24:44;5.75;;;4.18;;
85405;SDS011;75817;42.662;23.270;2024-01-30T04:27:10;3.83;;;3.08;;
85405;SDS011;75817;42.662;23.270;2024-01-30T04:29:35;4.57;;;3.40;;
85405;SDS011;75817;42.662;23.270;2024-01-30T04:32:01;5.15;;;3.50;;
85405;SDS011;75817;42.662;23.270;2024-01-30T04:34:26;5.25;;;3.45;;
85405;SDS011;75817;42.662;23.270;2024-01-30T04:36:51;5.20;;;3.50;;
85405;SDS011;75817;42.662;23.270;2024-01-30T04:39:17;3.70;;;3.40;;
85405;SDS011;75817;42.662;23.270;2024-01-30T04:41:42;5.00;;;3.60;;
85405;SDS011;75817;42.662;23.270;2024-01-30T04:44:07;6.32;;;4.20;;
85405;SDS011;75817;42.662;23.270;2024-01-30T04:46:33;6.32;;;4.03;;
85405;SDS011;75817;42.662;23.270;2024-01-30T04:49:01;6.22;;;3.58;;
85405;SDS011;75817;42.662;23.270;2024-01-30T04:51:26;4.22;;;3.53;;
85405;SDS011;75817;42.662;23.270;2024-01-30T04:53:52;5.65;;;3.55;;
85405;SDS011;75817;42.662;23.270;2024-01-30T04:56:17;4.82;;;3.95;;
85405;SDS011;75817;42.662;23.270;2024-01-30T04:58:42;5.28;;;4.28;;
85405;SDS011;75817;42.662;23.270;2024-01-30T05:01:08;5.38;;;4.20;;
85405;SDS011;75817;42.662;23.270;2024-01-30T05:03:33;6.03;;;3.72;;
85405;SDS011;75817;42.662;23.270;2024-01-30T05:05:59;7.03;;;4.38;;
85405;SDS011;75817;42.662;23.270;2024-01-30T05:08:25;6.75;;;3.85;;
85405;SDS011;75817;42.662;23.270;2024-01-30T05:10:50;7.40;;;3.67;;
85405;SDS011;75817;42.662;23.270;2024-01-30T05:13:15;5.45;;;3.97;;
85405;SDS011;75817;42.662;23.270;2024-01-30T05:15:41;6.30;;;4.30;;
85405;SDS011;75817;42.662;23.270;2024-01-30T05:18:06;5.80;;;3.70;;
85405;SDS011;75817;42.662;23.270;2024-01-30T05:20:31;8.02;;;4.28;;
85405;SDS011;75817;42.662;23.270;2024-01-30T05:22:57;7.68;;;4.40;;
85405;SDS011;75817;42.662;23.270;2024-01-30T05:25:22;9.38;;;4.40;;
85405;SDS011;75817;42.662;23.270;2024-01-30T05:27:48;6.85;;;4.22;;
85405;SDS011;75817;42.662;23.270;2024-01-30T05:30:14;7.90;;;5.22;;
85405;SDS011;75817;42.662;23.270;2024-01-30T05:32:40;8.50;;;4.53;;
85405;SDS011;75817;42.662;23.270;2024-01-30T05:35:05;6.50;;;4.40;;
85405;SDS011;75817;42.662;23.270;2024-01-30T05:37:32;7.47;;;4.28;;
85405;SDS011;75817;42.662;23.270;2024-01-30T05:39:58;5.93;;;4.30;;
85405;SDS011;75817;42.662;23.270;2024-01-30T05:42:23;5.85;;;4.32;;
85405;SDS011;75817;42.662;23.270;2024-01-30T05:44:49;6.35;;;4.00;;
85405;SDS011;75817;42.662;23.270;2024-01-30T05:47:14;5.22;;;3.92;;
85405;SDS011;75817;42.662;23.270;2024-01-30T05:49:40;5.65;;;3.63;;
85405;SDS011;75817;42.662;23.270;2024-01-30T05:52:06;5.78;;;3.92;;
85405;SDS011;75817;42.662;23.270;2024-01-30T05:54:31;6.35;;;4.38;;
85405;SDS011;75817;42.662;23.270;2024-01-30T05:56:56;5.03;;;3.85;;
85405;SDS011;75817;42.662;23.270;2024-01-30T05:59:22;6.60;;;4.68;;
85405;SDS011;75817;42.662;23.270;2024-01-30T06:01:47;6.15;;;4.07;;
85405;SDS011;75817;42.662;23.270;2024-01-30T06:04:13;5.75;;;3.95;;
85405;SDS011;75817;42.662;23.270;2024-01-30T06:06:39;8.10;;;4.20;;
85405;SDS011;75817;42.662;23.270;2024-01-30T06:09:05;6.72;;;3.88;;
85405;SDS011;75817;42.662;23.270;2024-01-30T06:11:30;5.65;;;4.25;;
85405;SDS011;75817;42.662;23.270;2024-01-30T06:13:56;5.15;;;3.47;;
85405;SDS011;75817;42.662;23.270;2024-01-30T06:16:21;7.93;;;4.65;;
85405;SDS011;75817;42.662;23.270;2024-01-30T06:18:47;6.60;;;4.70;;
85405;SDS011;75817;42.662;23.270;2024-01-30T06:21:13;8.10;;;4.10;;
85405;SDS011;75817;42.662;23.270;2024-01-30T06:23:38;9.82;;;4.47;;
85405;SDS011;75817;42.662;23.270;2024-01-30T06:26:04;7.03;;;4.05;;
85405;SDS011;75817;42.662;23.270;2024-01-30T06:28:31;6.22;;;3.85;;
85405;SDS011;75817;42.662;23.270;2024-01-30T06:30:56;6.47;;;4.03;;
85405;SDS011;75817;42.662;23.270;2024-01-30T06:33:22;6.35;;;4.32;;
85405;SDS011;75817;42.662;23.270;2024-01-30T06:35:47;6.80;;;5.03;;
85405;SDS011;75817;42.662;23.270;2024-01-30T06:38:13;7.28;;;4.03;;
85405;SDS011;75817;42.662;23.270;2024-01-30T06:40:40;7.97;;;5.07;;
85405;SDS011;75817;42.662;23.270;2024-01-30T06:43:06;9.18;;;6.07;;
85405;SDS011;75817;42.662;23.270;2024-01-30T06:45:32;7.82;;;5.22;;
85405;SDS011;75817;42.662;23.270;2024-01-30T06:47:59;6.90;;;4.68;;
85405;SDS011;75817;42.662;23.270;2024-01-30T06:50:24;6.78;;;5.15;;
85405;SDS011;75817;42.662;23.270;2024-01-30T06:52:50;6.13;;;3.75;;
85405;SDS011;75817;42.662;23.270;2024-01-30T06:55:16;8.52;;;5.13;;
85405;SDS011;75817;42.662;23.270;2024-01-30T06:57:41;10.20;;;5.05;;
85405;SDS011;75817;42.662;23.270;2024-01-30T07:00:06;6.85;;;4.30;;
85405;SDS011;75817;42.662;23.270;2024-01-30T07:02:32;8.80;;;4.28;;
85405;SDS011;75817;42.662;23.270;2024-01-30T07:04:58;9.30;;;5.40;;
85405;SDS011;75817;42.662;23.270;2024-01-30T07:07:23;10.43;;;5.82;;
85405;SDS011;75817;42.662;23.270;2024-01-30T07:09:49;7.25;;;5.38;;
85405;SDS011;75817;42.662;23.270;2024-01-30T07:12:17;7.32;;;4.25;;
85405;SDS011;75817;42.662;23.270;2024-01-30T07:14:43;4.95;;;4.20;;
85405;SDS011;75817;42.662;23.270;2024-01-30T07:17:08;8.80;;;4.50;;
85405;SDS011;75817;42.662;23.270;2024-01-30T07:19:33;6.47;;;4.32;;
85405;SDS011;75817;42.662;23.270;2024-01-30T07:22:00;5.57;;;3.42;;
85405;SDS011;75817;42.662;23.270;2024-01-30T07:24:25;5.13;;;4.30;;
85405;SDS011;75817;42.662;23.270;2024-01-30T07:26:51;5.78;;;2.85;;
85405;SDS011;75817;42.662;23.270;2024-01-30T07:29:16;5.13;;;3.40;;
85405;SDS011;75817;42.662;23.270;2024-01-30T07:31:42;5.68;;;4.15;;
85405;SDS011;75817;42.662;23.270;2024-01-30T07:34:08;4.00;;;3.30;;
85405;SDS011;75817;42.662;23.270;2024-01-30T07:36:34;3.60;;;2.38;;
85405;SDS011;75817;42.662;23.270;2024-01-30T07:38:59;3.97;;;3.20;;
85405;SDS011;75817;42.662;23.270;2024-01-30T07:41:24;3.58;;;2.50;;
85405;SDS011;75817;42.662;23.270;2024-01-30T07:43:50;2.50;;;2.28;;
85405;SDS011;75817;42.662;23.270;2024-01-30T07:46:15;2.25;;;2.03;;
85405;SDS011;75817;42.662;23.270;2024-01-30T07:48:41;5.80;;;3.40;;
85405;SDS011;75817;42.662;23.270;2024-01-30T07:51:06;6.15;;;2.92;;
85405;SDS011;75817;42.662;23.270;2024-01-30T07:53:32;3.65;;;2.40;;
85405;SDS011;75817;42.662;23.270;2024-01-30T07:55:57;5.00;;;2.30;;
85405;SDS011;75817;42.662;23.270;2024-01-30T07:58:22;4.13;;;2.83;;
85405;SDS011;75817;42.662;23.270;2024-01-30T08:00:48;4.10;;;3.25;;
85405;SDS011;75817;42.662;23.270;2024-01-30T08:03:14;4.20;;;3.28;;
85405;SDS011;75817;42.662;23.270;2024-01-30T08:05:41;6.43;;;3.28;;
85405;SDS011;75817;42.662;23.270;2024-01-30T08:08:07;3.47;;;2.63;;
85405;SDS011;75817;42.662;23.270;2024-01-30T08:10:32;5.55;;;3.85;;
85405;SDS011;75817;42.662;23.270;2024-01-30T08:12:57;6.20;;;3.13;;
85405;SDS011;75817;42.662;23.270;2024-01-30T08:15:23;3.13;;;2.53;;
85405;SDS011;75817;42.662;23.270;2024-01-30T08:17:48;5.00;;;3.33;;
85405;SDS011;75817;42.662;23.270;2024-01-30T08:20:14;3.88;;;3.08;;
85405;SDS011;75817;42.662;23.270;2024-01-30T08:22:39;6.05;;;3.65;;
85405;SDS011;75817;42.662;23.270;2024-01-30T08:25:07;4.90;;;2.83;;
85405;SDS011;75817;42.662;23.270;2024-01-30T08:27:34;5.00;;;3.03;;
85405;SDS011;75817;42.662;23.270;2024-01-30T08:30:01;4.88;;;2.85;;
85405;SDS011;75817;42.662;23.270;2024-01-30T08:32:27;3.65;;;3.20;;
85405;SDS011;75817;42.662;23.270;2024-01-30T08:34:52;3.40;;;2.67;;
85405;SDS011;75817;42.662;23.270;2024-01-30T08:37:17;4.25;;;2.80;;
85405;SDS011;75817;42.662;23.270;2024-01-30T08:39:43;3.40;;;2.95;;
85405;SDS011;75817;42.662;23.270;2024-01-30T08:42:09;5.82;;;3.25;;
85405;SDS011;75817;42.662;23.270;2024-01-30T08:44:35;4.75;;;3.15;;
85405;SDS011;75817;42.662;23.270;2024-01-30T08:47:00;3.88;;;2.88;;
85405;SDS011;75817;42.662;23.270;2024-01-30T08:49:26;5.25;;;3.50;;
85405;SDS011;75817;42.662;23.270;2024-01-30T08:51:52;4.93;;;3.22;;
85405;SDS011;75817;42.662;23.270;2024-01-30T08:54:18;5.22;;;3.15;;
85405;SDS011;75817;42.662;23.270;2024-01-30T08:56:43;3.78;;;3.15;;
85405;SDS011;75817;42.662;23.270;2024-01-30T08:59:09;4.32;;;3.20;;
85405;SDS011;75817;42.662;23.270;2024-01-30T09:01:34;4.38;;;3.47;;
85405;SDS011;75817;42.662;23.270;2024-01-30T09:04:00;5.30;;;3.15;;
85405;SDS011;75817;42.662;23.270;2024-01-30T09:06:25;6.10;;;3.00;;
85405;SDS011;75817;42.662;23.270;2024-01-30T09:08:53;5.90;;;4.07;;
85405;SDS011;75817;42.662;23.270;2024-01-30T09:11:18;9.38;;;3.75;;
85405;SDS011;75817;42.662;23.270;2024-01-30T09:13:44;9.05;;;4.40;;
85405;SDS011;75817;42.662;23.270;2024-01-30T09:16:09;6.53;;;4.35;;
85405;SDS011;75817;42.662;23.270;2024-01-30T09:18:35;5.25;;;4.72;;
85405;SDS011;75817;42.662;23.270;2024-01-30T09:21:01;6.05;;;4.28;;
85405;SDS011;75817;42.662;23.270;2024-01-30T09:23:27;5.32;;;4.30;;
85405;SDS011;75817;42.662;23.270;2024-01-30T09:25:52;6.28;;;4.38;;
85405;SDS011;75817;42.662;23.270;2024-01-30T09:28:18;5.88;;;4.13;;
85405;SDS011;75817;42.662;23.270;2024-01-30T09:30:43;6.88;;;4.25;;
85405;SDS011;75817;42.662;23.270;2024-01-30T09:33:09;7.95;;;4.53;;
85405;SDS011;75817;42.662;23.270;2024-01-30T09:35:34;6.53;;;4.82;;
85405;SDS011;75817;42.662;23.270;2024-01-30T09:38:01;7.55;;;5.60;;
85405;SDS011;75817;42.662;23.270;2024-01-30T09:40:27;7.68;;;4.65;;
85405;SDS011;75817;42.662;23.270;2024-01-30T09:42:53;7.07;;;3.78;;
85405;SDS011;75817;42.662;23.270;2024-01-30T09:45:19;6.35;;;4.13;;
85405;SDS011;75817;42.662;23.270;2024-01-30T09:47:45;5.35;;;4.28;;
85405;SDS011;75817;42.662;23.270;2024-01-30T09:50:11;6.82;;;4.55;;
85405;SDS011;75817;42.662;23.270;2024-01-30T09:52:38;7.32;;;4.35;;
85405;SDS011;75817;42.662;23.270;2024-01-30T09:55:04;8.73;;;5.13;;
85405;SDS011;75817;42.662;23.270;2024-01-30T09:57:30;8.50;;;4.80;;
85405;SDS011;75817;42.662;23.270;2024-01-30T09:59:55;4.72;;;4.20;;
85405;SDS011;75817;42.662;23.270;2024-01-30T10:02:21;6.30;;;4.60;;
85405;SDS011;75817;42.662;23.270;2024-01-30T10:04:47;7.10;;;4.63;;
85405;SDS011;75817;42.662;23.270;2024-01-30T10:07:14;8.73;;;5.38;;
85405;SDS011;75817;42.662;23.270;2024-01-30T10:09:40;6.03;;;4.22;;
85405;SDS011;75817;42.662;23.270;2024-01-30T10:12:05;7.80;;;4.80;;
85405;SDS011;75817;42.662;23.270;2024-01-30T10:14:31;5.18;;;3.85;;
85405;SDS011;75817;42.662;23.270;2024-01-30T10:17:01;5.40;;;3.67;;
85405;SDS011;75817;42.662;23.270;2024-01-30T10:19:26;6.10;;;4.72;;
85405;SDS011;75817;42.662;23.270;2024-01-30T10:21:52;6.15;;;4.30;;
85405;SDS011;75817;42.662;23.270;2024-01-30T10:24:18;7.28;;;5.10;;
85405;SDS011;75817;42.662;23.270;2024-01-30T10:26:43;5.03;;;4.55;;
85405;SDS011;75817;42.662;23.270;2024-01-30T10:29:09;7.18;;;3.85;;
85405;SDS011;75817;42.662;23.270;2024-01-30T10:31:34;6.25;;;4.13;;
85405;SDS011;75817;42.662;23.270;2024-01-30T10:34:00;5.75;;;4.05;;
85405;SDS011;75817;42.662;23.270;2024-01-30T10:36:27;6.32;;;4.30;;
85405;SDS011;75817;42.662;23.270;2024-01-30T10:38:53;6.78;;;4.50;;
85405;SDS011;75817;42.662;23.270;2024-01-30T10:41:23;7.85;;;4.43;;
85405;SDS011;75817;42.662;23.270;2024-01-30T10:43:56;4.70;;;3.72;;
85405;SDS011;75817;42.662;23.270;2024-01-30T10:46:28;5.68;;;3.25;;
85405;SDS011;75817;42.662;23.270;2024-01-30T10:48:58;5.82;;;3.80;;
85405;SDS011;75817;42.662;23.270;2024-01-30T10:51:26;7.10;;;3.30;;
85405;SDS011;75817;42.662;23.270;2024-01-30T10:53:51;5.82;;;3.58;;
85405;SDS011;75817;42.662;23.270;2024-01-30T10:56:18;5.72;;;4.35;;
85405;SDS011;75817;42.662;23.270;2024-01-30T11:01:11;6.03;;;3.75;;
85405;SDS011;75817;42.662;23.270;2024-01-30T11:03:37;5.90;;;4.68;;
85405;SDS011;75817;42.662;23.270;2024-01-30T11:06:02;7.05;;;4.18;;
85405;SDS011;75817;42.662;23.270;2024-01-30T11:08:28;5.85;;;4.63;;
85405;SDS011;75817;42.662;23.270;2024-01-30T11:10:55;10.20;;;6.22;;
85405;SDS011;75817;42.662;23.270;2024-01-30T11:13:21;9.45;;;5.07;;
85405;SDS011;75817;42.662;23.270;2024-01-30T11:15:47;6.80;;;4.18;;
85405;SDS011;75817;42.662;23.270;2024-01-30T11:18:22;5.50;;;4.07;;
85405;SDS011;75817;42.662;23.270;2024-01-30T11:20:48;9.30;;;5.18;;
85405;SDS011;75817;42.662;23.270;2024-01-30T11:23:13;7.22;;;4.25;;
85405;SDS011;75817;42.662;23.270;2024-01-30T11:25:39;5.53;;;4.05;;
85405;SDS011;75817;42.662;23.270;2024-01-30T11:28:04;8.77;;;4.60;;
85405;SDS011;75817;42.662;23.270;2024-01-30T11:30:30;8.38;;;4.38;;
85405;SDS011;75817;42.662;23.270;2024-01-30T11:35:25;4.63;;;3.47;;
85405;SDS011;75817;42.662;23.270;2024-01-30T11:37:50;5.43;;;4.05;;
85405;SDS011;75817;42.662;23.270;2024-01-30T11:40:16;8.13;;;3.70;;
85405;SDS011;75817;42.662;23.270;2024-01-30T11:42:41;7.32;;;4.80;;
85405;SDS011;75817;42.662;23.270;2024-01-30T11:45:08;5.45;;;4.15;;
85405;SDS011;75817;42.662;23.270;2024-01-30T11:47:35;6.47;;;4.97;;
85405;SDS011;75817;42.662;23.270;2024-01-30T11:50:01;7.28;;;3.65;;
85405;SDS011;75817;42.662;23.270;2024-01-30T11:52:28;4.07;;;3.55;;
85405;SDS011;75817;42.662;23.270;2024-01-30T11:54:54;6.50;;;3.78;;
85405;SDS011;75817;42.662;23.270;2024-01-30T11:57:19;7.60;;;3.30;;
85405;SDS011;75817;42.662;23.270;2024-01-30T11:59:45;9.63;;;3.85;;
85405;SDS011;75817;42.662;23.270;2024-01-30T12:02:15;4.80;;;3.58;;
85405;SDS011;75817;42.662;23.270;2024-01-30T12:04:41;6.38;;;3.90;;
85405;SDS011;75817;42.662;23.270;2024-01-30T12:07:06;4.53;;;3.13;;
85405;SDS011;75817;42.662;23.270;2024-01-30T12:09:32;5.20;;;3.15;;
85405;SDS011;75817;42.662;23.270;2024-01-30T12:11:57;4.75;;;3.25;;
85405;SDS011;75817;42.662;23.270;2024-01-30T12:14:23;3.92;;;3.00;;
85405;SDS011;75817;42.662;23.270;2024-01-30T12:16:50;5.43;;;3.42;;
85405;SDS011;75817;42.662;23.270;2024-01-30T12:19:24;6.57;;;3.90;;
85405;SDS011;75817;42.662;23.270;2024-01-30T12:21:53;5.25;;;3.50;;
85405;SDS011;75817;42.662;23.270;2024-01-30T12:24:21;6.13;;;3.90;;
85405;SDS011;75817;42.662;23.270;2024-01-30T12:26:47;6.47;;;3.33;;
85405;SDS011;75817;42.662;23.270;2024-01-30T12:29:12;7.65;;;4.10;;
85405;SDS011;75817;42.662;23.270;2024-01-30T12:31:41;5.22;;;3.88;;
85405;SDS011;75817;42.662;23.270;2024-01-30T12:34:07;5.70;;;3.70;;
85405;SDS011;75817;42.662;23.270;2024-01-30T12:36:33;5.78;;;3.80;;
85405;SDS011;75817;42.662;23.270;2024-01-30T12:38:59;5.35;;;3.63;;
85405;SDS011;75817;42.662;23.270;2024-01-30T12:41:25;6.07;;;4.20;;
85405;SDS011;75817;42.662;23.270;2024-01-30T12:43:54;22.70;;;4.75;;
85405;SDS011;75817;42.662;23.270;2024-01-30T12:46:20;6.60;;;4.70;;
85405;SDS011;75817;42.662;23.270;2024-01-30T12:48:45;4.15;;;2.83;;
85405;SDS011;75817;42.662;23.270;2024-01-30T12:51:11;8.18;;;4.55;;
85405;SDS011;75817;42.662;23.270;2024-01-30T12:53:36;4.93;;;3.83;;
85405;SDS011;75817;42.662;23.270;2024-01-30T12:56:02;7.35;;;5.35;;
85405;SDS011;75817;42.662;23.270;2024-01-30T12:58:27;6.32;;;4.38;;
85405;SDS011;75817;42.662;23.270;2024-01-30T13:00:53;6.25;;;4.35;;
85405;SDS011;75817;42.662;23.270;2024-01-30T13:03:19;6.38;;;4.45;;
85405;SDS011;75817;42.662;23.270;2024-01-30T13:05:44;4.95;;;3.47;;
85405;SDS011;75817;42.662;23.270;2024-01-30T13:08:10;5.10;;;3.78;;
85405;SDS011;75817;42.662;23.270;2024-01-30T13:10:35;10.38;;;6.00;;
85405;SDS011;75817;42.662;23.270;2024-01-30T13:13:00;7.25;;;5.28;;
85405;SDS011;75817;42.662;23.270;2024-01-30T13:15:26;6.93;;;4.75;;
85405;SDS011;75817;42.662;23.270;2024-01-30T13:17:51;8.07;;;4.80;;
85405;SDS011;75817;42.662;23.270;2024-01-30T13:20:19;5.53;;;3.95;;
85405;SDS011;75817;42.662;23.270;2024-01-30T13:22:47;5.15;;;3.38;;
85405;SDS011;75817;42.662;23.270;2024-01-30T13:25:14;6.40;;;4.57;;
85405;SDS011;75817;42.662;23.270;2024-01-30T13:27:40;7.10;;;4.85;;
85405;SDS011;75817;42.662;23.270;2024-01-30T13:30:06;4.88;;;3.58;;
85405;SDS011;75817;42.662;23.270;2024-01-30T13:32:33;9.10;;;4.13;;
85405;SDS011;75817;42.662;23.270;2024-01-30T13:34:58;5.78;;;4.28;;
85405;SDS011;75817;42.662;23.270;2024-01-30T13:37:23;5.47;;;3.70;;
85405;SDS011;75817;42.662;23.270;2024-01-30T13:39:49;7.22;;;4.68;;
85405;SDS011;75817;42.662;23.270;2024-01-30T13:42:15;5.30;;;4.25;;
85405;SDS011;75817;42.662;23.270;2024-01-30T13:44:40;7.85;;;4.30;;
85405;SDS011;75817;42.662;23.270;2024-01-30T13:47:08;6.28;;;4.60;;
85405;SDS011;75817;42.662;23.270;2024-01-30T13:49:33;8.32;;;5.47;;
85405;SDS011;75817;42.662;23.270;2024-01-30T13:51:59;7.32;;;5.20;;
85405;SDS011;75817;42.662;23.270;2024-01-30T13:54:24;8.23;;;5.30;;
85405;SDS011;75817;42.662;23.270;2024-01-30T13:56:49;6.55;;;5.15;;
85405;SDS011;75817;42.662;23.270;2024-01-30T13:59:15;8.65;;;5.88;;
85405;SDS011;75817;42.662;23.270;2024-01-30T14:01:40;7.32;;;5.22;;
85405;SDS011;75817;42.662;23.270;2024-01-30T14:04:05;6.47;;;4.65;;
85405;SDS011;75817;42.662;23.270;2024-01-30T14:06:31;5.28;;;4.15;;
85405;SDS011;75817;42.662;23.270;2024-01-30T14:08:56;5.03;;;4.30;;
85405;SDS011;75817;42.662;23.270;2024-01-30T14:11:23;7.55;;;4.88;;
85405;SDS011;75817;42.662;23.270;2024-01-30T14:13:48;7.70;;;5.50;;
85405;SDS011;75817;42.662;23.270;2024-01-30T14:16:14;6.38;;;4.57;;
85405;SDS011;75817;42.662;23.270;2024-01-30T14:18:39;8.00;;;5.55;;
85405;SDS011;75817;42.662;23.270;2024-01-30T14:21:06;7.25;;;5.60;;
85405;SDS011;75817;42.662;23.270;2024-01-30T14:23:32;8.70;;;5.03;;
85405;SDS011;75817;42.662;23.270;2024-01-30T14:25:58;8.80;;;5.13;;
85405;SDS011;75817;42.662;23.270;2024-01-30T14:28:23;7.18;;;5.53;;
85405;SDS011;75817;42.662;23.270;2024-01-30T14:30:49;12.65;;;7.68;;